Hartland, MI (48353)

11:48 PM EST on February 20, 2017 (GMT -0500)
Clyde Road | | Change Station

Elev 0 ft 42.67 °N, 83.75 °W | Updated 39 seconds ago

Partly Cloudy
Partly Cloudy
38.8 °F
Feels Like 35 °F
N
5.0
Wind Variable Wind from SSE
Gusts 12.4 mph

Today
High -- | Low -- °F
--% Chance of Precip.
Yesterday
High -- | Low -- °F
Precip. -- in
Pressure 30.08 in
Visibility 10.0 miles
Clouds Clear
Windchill 35 °F
Dew Point 30 °F
Humidity 69%
Rainfall 0.00 in
Snow Depth Not available.
7:24 AM 6:13 PM
Waning Crescent, 28% visible
METAR KOZW 210434Z AUTO 14012KT 10SM CLR 04/M01 A3008 RMK AO2 T00401015
Pressure 30.08 in
Visibility 10.0 miles
Clouds Clear
Windchill 35 °F
Dew Point 30 °F
Humidity 69%
Rainfall 0.00 in
Snow Depth Not available.
7:24 AM 6:13 PM
Waning Crescent, 28% visible
METAR KOZW 210434Z AUTO 14012KT 10SM CLR 04/M01 A3008 RMK AO2 T00401015

Get Your Daily Forecast Email!

Thanks for signing up!

Be on the lookout for a verification email in your inbox.

You'll start receiving the daily forecast at 8 AM.

×

10-Day Weather Forecast

Almanac

Astronomy

Feb. 20, 2017 Rise Set
Actual Time
Civil Twilight
Nautical Twilight
Astronomical Twilight
Moon
Length of Visible Light
Length of Day
Tomorrow will be .
, % of the Moon is Illuminated

Today's Extremes

State Highs State Lows

Community

WunderPhotos

Upload Photos

1,962,540 photos uploaded!

WunderBlog® & News

Nearby

Air Quality

  Air Quality AQ Index Pollutant
Not available.

Snow Depth

Station Depth Elevation

Earthquake Activity

City Distance Mag. Time & Date
Minimum magnitude displayed is 2.5.

Coastal Water Temperatures

Place Temperature

Stations

Nearby Weather Stations

Station Location Temp. Windchill Dew Point Humidity Wind Precip. Elev Updated Type
                   

Watches & Warnings

There are currently no watches in effect.